Time;durP1;ratioP1;P1;durP2;ratioP2;P2;SDS_P1;SDS_P2;PMS_P1;PMS_P2;Temp;Humidity;BMP_temperature;BMP_pressure;BME280_temperature;BME280_humidity;BME280_pressure;Samples;Min_cycle;Max_cycle;Signal;HPM_P1;HPM_P2
2023/12/14 00:00:03;;;;;;;1.45;1.00;;;;;;;8.05;100.00;98422.06;327626;29;18235;-76
2023/12/14 00:00:16;;;;;;;1.58;1.08;;;;;;;8.08;100.00;98423.69;334559;29;4681;-76
2023/12/14 00:00:28;;;;;;;1.45;1.00;;;;;;;8.14;100.00;98423.41;331166;29;19054;-76
2023/12/14 00:00:40;;;;;;;2.03;1.00;;;;;;;8.16;100.00;98426.78;334629;29;4693;-75
2023/12/14 00:00:52;;;;;;;2.15;1.02;;;;;;;8.09;100.00;98436.56;331584;28;9215;-76
2023/12/14 00:01:10;;;;;;;1.88;1.02;;;;;;;8.09;100.00;98427.94;333672;29;4526;-76
2023/12/14 00:01:22;;;;;;;1.73;1.10;;;;;;;8.09;100.00;98425.34;335004;29;17880;-76
2023/12/14 00:01:35;;;;;;;1.45;1.10;;;;;;;8.12;100.00;98426.06;328217;29;17474;-76
2023/12/14 00:01:48;;;;;;;1.73;1.23;;;;;;;8.11;100.00;98423.53;332825;29;13481;-75
2023/12/14 00:02:00;;;;;;;1.80;1.20;;;;;;;8.12;100.00;98430.41;335095;29;5430;-76
2023/12/14 00:02:13;;;;;;;1.98;1.20;;;;;;;8.14;100.00;98426.00;331861;29;18551;-76
2023/12/14 00:02:25;;;;;;;1.60;1.08;;;;;;;8.16;100.00;98426.78;336556;28;4534;-76
2023/12/14 00:02:37;;;;;;;1.35;0.90;;;;;;;8.17;100.00;98431.91;335052;29;4523;-75
2023/12/14 00:02:50;;;;;;;2.35;1.00;;;;;;;8.12;100.00;98420.88;334286;28;16309;-76
2023/12/14 00:03:02;;;;;;;2.67;1.15;;;;;;;8.16;100.00;98426.78;337024;28;4732;-76
2023/12/14 00:03:14;;;;;;;2.70;1.20;;;;;;;8.19;100.00;98434.44;332827;28;18471;-76
2023/12/14 00:03:26;;;;;;;1.88;1.17;;;;;;;8.22;100.00;98426.53;336616;28;4701;-76
2023/12/14 00:03:38;;;;;;;1.80;1.08;;;;;;;8.20;100.00;98428.34;333873;28;18521;-75
2023/12/14 00:03:50;;;;;;;1.65;1.10;;;;;;;8.23;100.00;98423.03;337041;28;4702;-75
2023/12/14 00:04:04;;;;;;;1.58;1.10;;;;;;;8.21;100.00;98427.44;334208;28;13104;-75
2023/12/14 00:04:16;;;;;;;1.83;1.10;;;;;;;8.25;100.00;98426.41;335707;28;4672;-76
2023/12/14 00:04:29;;;;;;;2.17;1.10;;;;;;;8.24;100.00;98423.88;333438;29;17990;-76
2023/12/14 00:04:41;;;;;;;2.28;1.20;;;;;;;8.25;100.00;98429.00;335691;29;4719;-76
2023/12/14 00:04:53;;;;;;;2.55;1.30;;;;;;;8.26;100.00;98429.81;332410;28;18923;-76
2023/12/14 00:05:05;;;;;;;2.22;1.30;;;;;;;8.17;100.00;98429.31;335501;28;4625;-75
2023/12/14 00:05:17;;;;;;;1.88;1.15;;;;;;;8.17;100.00;98428.47;333389;28;16481;-75
2023/12/14 00:05:29;;;;;;;2.15;1.10;;;;;;;8.20;100.00;98433.50;335869;28;4730;-76
2023/12/14 00:05:41;;;;;;;2.42;1.10;;;;;;;8.21;100.00;98430.03;336315;28;5063;-76
2023/12/14 00:05:54;;;;;;;2.17;1.10;;;;;;;8.17;100.00;98425.88;329399;28;18573;-75
2023/12/14 00:06:07;;;;;;;2.10;1.00;;;;;;;8.22;100.00;98430.88;336135;28;4546;-76
2023/12/14 00:06:19;;;;;;;3.40;1.30;;;;;;;8.22;100.00;98426.53;333737;28;18153;-76
2023/12/14 00:06:31;;;;;;;2.72;1.40;;;;;;;8.23;100.00;98432.53;337294;28;4762;-76
2023/12/14 00:06:43;;;;;;;3.00;1.42;;;;;;;8.22;100.00;98436.88;334058;28;4798;-75
2023/12/14 00:06:55;;;;;;;2.20;1.30;;;;;;;8.24;100.00;98429.88;336131;28;4670;-76
2023/12/14 00:07:07;;;;;;;1.85;1.15;;;;;;;8.29;100.00;98427.09;335542;28;4542;-76
2023/12/14 00:07:19;;;;;;;2.10;1.33;;;;;;;8.31;100.00;98433.91;334367;28;13153;-76
2023/12/14 00:07:31;;;;;;;3.95;1.55;;;;;;;8.32;100.00;98432.97;337321;28;5277;-76
2023/12/14 00:07:43;;;;;;;3.55;1.50;;;;;;;8.30;100.00;98429.63;333455;28;11921;-75
2023/12/14 00:07:55;;;;;;;2.33;1.40;;;;;;;8.27;100.00;98434.09;335545;29;4586;-76
2023/12/14 00:08:07;;;;;;;2.22;1.50;;;;;;;8.25;100.00;98426.41;334452;28;4681;-76
2023/12/14 00:08:19;;;;;;;2.25;1.50;;;;;;;8.19;100.00;98426.66;331555;29;17509;-76
2023/12/14 00:08:31;;;;;;;1.98;1.20;;;;;;;8.13;100.00;98432.06;335046;29;4744;-76
2023/12/14 00:08:43;;;;;;;2.05;1.15;;;;;;;8.08;100.00;98432.28;334927;29;4621;-76
2023/12/14 00:08:55;;;;;;;2.47;1.20;;;;;;;7.99;100.00;98430.94;332292;29;16420;-76
2023/12/14 00:09:08;;;;;;;3.10;1.20;;;;;;;7.94;100.00;98432.84;333301;29;4561;-76
2023/12/14 00:09:20;;;;;;;2.63;1.08;;;;;;;7.95;100.00;98434.53;327671;29;17738;-76
2023/12/14 00:09:32;;;;;;;2.53;1.20;;;;;;;8.01;100.00;98436.03;334063;28;6313;-76
2023/12/14 00:09:44;;;;;;;1.65;1.10;;;;;;;8.09;100.00;98440.88;332021;29;13696;-76
2023/12/14 00:09:56;;;;;;;1.50;1.40;;;;;;;8.13;100.00;98430.34;327612;29;17515;-75
2023/12/14 00:10:08;;;;;;;1.90;1.67;;;;;;;8.16;100.00;98434.53;334041;29;4572;-75
2023/12/14 00:10:20;;;;;;;1.90;1.40;;;;;;;8.17;100.00;98434.50;331705;29;18354;-75
2023/12/14 00:10:32;;;;;;;2.28;1.38;;;;;;;8.16;100.00;98429.38;334566;28;4839;-76
2023/12/14 00:10:44;;;;;;;2.08;1.20;;;;;;;8.15;100.00;98440.66;330283;28;5703;-76
2023/12/14 00:10:56;;;;;;;1.83;1.10;;;;;;;8.12;100.00;98435.59;333756;29;5357;-76
2023/12/14 00:11:10;;;;;;;1.52;1.05;;;;;;;8.12;100.00;98435.59;335514;28;5444;-76
2023/12/14 00:11:23;;;;;;;1.55;1.10;;;;;;;8.11;100.00;98439.06;329600;28;16572;-76
2023/12/14 00:11:40;;;;;;;1.83;1.33;;;;;;;8.16;100.00;98437.13;332417;28;7303;-75
2023/12/14 00:11:52;;;;;;;2.42;1.30;;;;;;;8.16;100.00;98439.72;335149;28;19009;-77
2023/12/14 00:12:04;;;;;;;2.13;1.23;;;;;;;8.13;100.00;98435.53;336589;28;5806;-76
2023/12/14 00:12:16;;;;;;;2.03;1.27;;;;;;;8.16;100.00;98437.13;334233;28;17469;-76
2023/12/14 00:12:28;;;;;;;2.97;1.55;;;;;;;8.17;100.00;98436.25;336942;28;4597;-77
2023/12/14 00:12:40;;;;;;;2.85;1.58;;;;;;;8.16;100.00;98439.72;333221;28;18131;-76
2023/12/14 00:12:55;;;;;;;2.45;1.30;;;;;;;8.23;100.00;98433.41;331548;28;4604;-76
2023/12/14 00:13:07;;;;;;;2.53;1.30;;;;;;;8.21;100.00;98430.03;333903;28;18875;-76
2023/12/14 00:13:19;;;;;;;3.40;1.55;;;;;;;8.19;100.00;98437.03;335992;28;4682;-76
2023/12/14 00:13:31;;;;;;;3.05;1.27;;;;;;;8.19;100.00;98431.84;332980;29;18269;-76
2023/12/14 00:13:43;;;;;;;3.03;1.20;;;;;;;8.20;100.00;98433.50;334281;29;5825;-76
2023/12/14 00:13:56;;;;;;;2.33;1.25;;;;;;;8.25;100.00;98430.72;332312;28;17910;-76
2023/12/14 00:14:08;;;;;;;2.50;1.35;;;;;;;8.28;100.00;98434.03;335474;28;5067;-76
2023/12/14 00:14:20;;;;;;;2.33;1.33;;;;;;;8.28;100.00;98431.44;335610;28;4651;-76
2023/12/14 00:14:32;;;;;;;1.83;1.38;;;;;;;8.28;100.00;98434.03;333301;28;5485;-76
2023/12/14 00:14:44;;;;;;;1.90;1.30;;;;;;;8.25;100.00;98438.47;335648;28;4723;-76
2023/12/14 00:14:56;;;;;;;2.30;1.25;;;;;;;8.22;100.00;98436.88;332329;28;14759;-75
2023/12/14 00:15:08;;;;;;;2.53;1.20;;;;;;;8.21;100.00;98435.22;335744;28;4633;-76
2023/12/14 00:15:21;;;;;;;2.53;1.20;;;;;;;8.17;100.00;98434.50;334527;28;4730;-76
2023/12/14 00:15:33;;;;;;;1.92;1.27;;;;;;;8.22;100.00;98442.06;332099;28;16640;-76
2023/12/14 00:15:45;;;;;;;2.25;1.40;;;;;;;8.18;100.00;98440.50;330534;28;4553;-76
2023/12/14 00:15:57;;;;;;;2.80;1.40;;;;;;;8.19;100.00;98437.03;333060;28;18810;-76
2023/12/14 00:16:09;;;;;;;2.65;1.30;;;;;;;8.19;100.00;98437.03;336376;28;5681;-76
2023/12/14 00:16:21;;;;;;;3.03;1.52;;;;;;;8.20;100.00;98436.94;336212;28;12374;-76
2023/12/14 00:16:33;;;;;;;2.53;1.55;;;;;;;8.20;100.00;98438.69;333064;29;19080;-76
2023/12/14 00:16:45;;;;;;;2.25;1.48;;;;;;;8.16;100.00;98437.97;335730;29;5323;-76
2023/12/14 00:16:59;;;;;;;2.03;1.38;;;;;;;8.13;100.00;98434.66;333531;29;4772;-76
2023/12/14 00:17:11;;;;;;;1.85;1.30;;;;;;;8.15;100.00;98438.06;328570;29;4728;-76
2023/12/14 00:17:23;;;;;;;1.80;1.30;;;;;;;8.20;100.00;98439.53;333167;29;15873;-76
2023/12/14 00:17:35;;;;;;;1.80;1.30;;;;;;;8.22;100.00;98442.06;336190;28;4718;-76
2023/12/14 00:17:47;;;;;;;2.13;1.30;;;;;;;8.23;100.00;98442.88;332184;28;18008;-76
2023/12/14 00:17:59;;;;;;;2.00;1.30;;;;;;;8.22;100.00;98436.03;335058;29;5607;-76
2023/12/14 00:18:11;;;;;;;1.73;1.27;;;;;;;8.23;100.00;98437.72;331603;28;12460;-75
2023/12/14 00:18:23;;;;;;;1.52;1.25;;;;;;;8.25;100.00;98441.94;335219;29;4687;-76
2023/12/14 00:18:36;;;;;;;1.42;1.08;;;;;;;8.30;100.00;98439.13;335696;29;4760;-76
2023/12/14 00:18:48;;;;;;;1.95;1.10;;;;;;;8.30;100.00;98437.38;332633;28;5275;-76
2023/12/14 00:19:00;;;;;;;2.17;1.17;;;;;;;8.18;100.00;98441.34;335365;29;4675;-76
2023/12/14 00:19:12;;;;;;;3.25;1.30;;;;;;;8.23;100.00;98443.75;332064;29;12853;-75
2023/12/14 00:19:24;;;;;;;3.33;1.40;;;;;;;8.18;100.00;98435.31;335700;28;5511;-76
2023/12/14 00:19:36;;;;;;;2.55;1.48;;;;;;;8.18;100.00;98445.69;332631;28;5794;-76
2023/12/14 00:19:48;;;;;;;2.28;1.60;;;;;;;8.20;100.00;98444.69;331966;28;17754;-76
2023/12/14 00:20:00;;;;;;;1.67;1.42;;;;;;;8.19;100.00;98443.03;336155;28;4720;-76
2023/12/14 00:20:14;;;;;;;1.52;1.10;;;;;;;8.22;100.00;98442.06;336199;28;5771;-74
2023/12/14 00:20:26;;;;;;;1.92;1.20;;;;;;;8.24;100.00;98439.41;332763;29;17936;-75
2023/12/14 00:20:38;;;;;;;2.40;1.35;;;;;;;8.16;100.00;98442.31;332873;28;12898;-74
2023/12/14 00:20:51;;;;;;;2.50;1.30;;;;;;;8.07;100.00;98442.69;335656;29;4748;-75
2023/12/14 00:21:03;;;;;;;2.10;1.17;;;;;;;8.12;100.00;98448.53;332339;28;4698;-74
2023/12/14 00:21:15;;;;;;;1.83;1.10;;;;;;;8.10;100.00;98447.75;335787;29;5533;-74
2023/12/14 00:21:27;;;;;;;2.00;1.30;;;;;;;8.15;100.00;98445.81;335465;28;4815;-74
2023/12/14 00:21:39;;;;;;;2.22;1.38;;;;;;;8.23;100.00;98448.06;327739;28;17805;-74
2023/12/14 00:21:52;;;;;;;1.60;1.17;;;;;;;8.24;100.00;98444.59;335416;29;5228;-74
2023/12/14 00:22:03;;;;;;;2.15;1.20;;;;;;;8.25;100.00;98449.69;331406;29;18432;-74
2023/12/14 00:22:16;;;;;;;2.03;1.27;;;;;;;8.26;100.00;98448.78;333600;29;4602;-74
2023/12/14 00:22:28;;;;;;;1.92;1.30;;;;;;;8.24;100.00;98450.59;332462;29;5415;-74
2023/12/14 00:22:40;;;;;;;2.13;1.38;;;;;;;8.17;100.00;98449.19;330467;29;18227;-74
2023/12/14 00:22:52;;;;;;;2.53;1.48;;;;;;;8.19;100.00;98452.56;333249;29;5876;-74
2023/12/14 00:23:04;;;;;;;2.75;1.58;;;;;;;8.18;100.00;98456.03;331161;29;5385;-74
2023/12/14 00:23:16;;;;;;;2.03;1.42;;;;;;;8.17;100.00;98455.19;333612;29;4908;-74
2023/12/14 00:23:28;;;;;;;2.30;1.48;;;;;;;8.17;100.00;98454.38;330715;29;15912;-74
2023/12/14 00:23:40;;;;;;;2.22;1.30;;;;;;;8.19;100.00;98457.72;333709;29;5859;-74
2023/12/14 00:23:52;;;;;;;2.35;1.42;;;;;;;8.17;100.00;98457.78;333892;29;4627;-74
2023/12/14 00:24:05;;;;;;;2.53;1.40;;;;;;;8.13;100.00;98452.78;331563;29;17843;-74
2023/12/14 00:24:17;;;;;;;2.50;1.40;;;;;;;8.15;100.00;98443.22;335152;29;4648;-74
2023/12/14 00:24:29;;;;;;;2.58;1.35;;;;;;;8.20;100.00;98454.22;336206;29;4704;-74
2023/12/14 00:24:41;;;;;;;2.45;1.40;;;;;;;8.20;100.00;98451.63;332658;29;15388;-75
2023/12/14 00:24:53;;;;;;;2.13;1.23;;;;;;;8.21;100.00;98455.91;335799;29;4764;-74
2023/12/14 00:25:06;;;;;;;2.88;1.38;;;;;;;8.25;100.00;98457.47;332307;29;18122;-74
2023/12/14 00:25:18;;;;;;;2.88;1.33;;;;;;;8.26;100.00;98459.13;336007;29;4571;-74
2023/12/14 00:25:30;;;;;;;2.00;1.25;;;;;;;8.26;100.00;98459.13;332303;29;18426;-74
2023/12/14 00:25:42;;;;;;;1.88;1.20;;;;;;;8.30;100.00;98455.50;335227;29;6024;-74
2023/12/14 00:25:54;;;;;;;1.98;1.25;;;;;;;8.29;100.00;98453.84;334859;29;15702;-74
2023/12/14 00:26:07;;;;;;;2.40;1.40;;;;;;;8.32;100.00;98458.88;327432;29;18303;-74
2023/12/14 00:26:19;;;;;;;2.45;1.38;;;;;;;8.34;100.00;98457.06;336187;28;5792;-74
2023/12/14 00:26:31;;;;;;;2.72;1.27;;;;;;;8.28;100.00;98454.72;330792;28;18223;-74
2023/12/14 00:26:43;;;;;;;2.95;1.35;;;;;;;8.35;100.00;98460.47;336539;28;5288;-74
2023/12/14 00:26:55;;;;;;;2.45;1.30;;;;;;;8.42;100.00;98463.72;334117;28;12964;-74
2023/12/14 00:27:07;;;;;;;1.88;1.25;;;;;;;8.39;100.00;98455.13;336953;28;4565;-75
2023/12/14 00:27:19;;;;;;;2.15;1.33;;;;;;;8.43;100.00;98455.00;337138;28;5640;-75
2023/12/14 00:27:31;;;;;;;2.72;1.35;;;;;;;8.44;100.00;98456.72;333579;28;16265;-75
2023/12/14 00:27:43;;;;;;;2.30;1.35;;;;;;;8.41;100.00;98452.50;335531;28;4564;-75
2023/12/14 00:27:55;;;;;;;2.00;1.30;;;;;;;8.44;100.00;98456.72;332699;28;11559;-75
2023/12/14 00:28:07;;;;;;;1.83;1.20;;;;;;;8.42;100.00;98455.94;335897;28;5388;-75
2023/12/14 00:28:19;;;;;;;1.92;1.35;;;;;;;8.40;100.00;98461.97;335746;28;4807;-75
2023/12/14 00:28:31;;;;;;;2.45;1.50;;;;;;;8.39;100.00;98456.84;333968;28;11880;-74
2023/12/14 00:28:45;;;;;;;2.72;1.40;;;;;;;8.41;100.00;98455.09;335984;28;13422;-75
2023/12/14 00:28:57;;;;;;;2.58;1.40;;;;;;;8.42;100.00;98463.72;334095;28;17786;-74
2023/12/14 00:29:13;;;;;;;2.83;1.40;;;;;;;8.39;100.00;98455.13;333230;29;18201;-74
2023/12/14 00:29:25;;;;;;;2.30;1.50;;;;;;;8.34;100.00;98457.06;334301;28;5552;-74
2023/12/14 00:29:37;;;;;;;2.15;1.50;;;;;;;8.36;100.00;98459.59;336427;28;5357;-75
2023/12/14 00:29:49;;;;;;;2.08;1.35;;;;;;;8.35;100.00;98463.94;337469;28;4528;-74
2023/12/14 00:30:01;;;;;;;2.20;1.40;;;;;;;8.35;100.00;98468.25;334388;28;12100;-75
2023/12/14 00:30:13;;;;;;;2.22;1.30;;;;;;;8.30;100.00;98455.50;335924;29;4581;-75
2023/12/14 00:30:25;;;;;;;1.75;1.13;;;;;;;8.29;100.00;98453.84;331113;28;4699;-75
2023/12/14 00:30:37;;;;;;;1.73;1.15;;;;;;;8.30;100.00;98463.28;332316;28;18079;-74
2023/12/14 00:30:49;;;;;;;1.98;1.30;;;;;;;8.28;100.00;98465.09;334988;29;5097;-75
2023/12/14 00:31:01;;;;;;;1.77;1.23;;;;;;;8.26;100.00;98461.72;331935;29;18262;-75
2023/12/14 00:31:14;;;;;;;1.95;1.30;;;;;;;8.25;100.00;98462.66;335827;29;5403;-75
2023/12/14 00:31:26;;;;;;;2.95;1.27;;;;;;;8.24;100.00;98460.94;335827;29;4853;-74
2023/12/14 00:31:38;;;;;;;2.80;1.40;;;;;;;8.22;100.00;98467.09;331685;28;16362;-74
2023/12/14 00:31:50;;;;;;;2.83;1.35;;;;;;;8.30;100.00;98463.28;330132;29;4999;-75
2023/12/14 00:32:02;;;;;;;2.78;1.38;;;;;;;8.29;100.00;98460.75;332423;28;13140;-75
2023/12/14 00:32:14;;;;;;;2.45;1.30;;;;;;;8.31;100.00;98464.97;335326;29;5515;-75
2023/12/14 00:32:26;;;;;;;2.13;1.30;;;;;;;8.28;100.00;98465.09;333545;29;18380;-75
2023/12/14 00:32:38;;;;;;;1.92;1.30;;;;;;;8.28;100.00;98470.28;335661;29;4596;-74
2023/12/14 00:32:50;;;;;;;1.88;1.20;;;;;;;8.29;100.00;98464.19;335306;29;4550;-75
2023/12/14 00:33:03;;;;;;;2.22;1.40;;;;;;;8.27;100.00;98466.00;332371;29;18163;-75
2023/12/14 00:33:15;;;;;;;2.40;1.50;;;;;;;8.29;100.00;98466.78;334776;29;6469;-75
2023/12/14 00:33:27;;;;;;;2.40;1.50;;;;;;;8.22;100.00;98461.94;331970;29;4751;-75
2023/12/14 00:33:39;;;;;;;2.67;1.58;;;;;;;8.29;100.00;98466.78;333777;29;5067;-75
2023/12/14 00:33:51;;;;;;;2.58;1.42;;;;;;;8.30;100.00;98465.88;334768;29;4695;-75
2023/12/14 00:34:03;;;;;;;2.10;1.15;;;;;;;8.32;100.00;98464.06;332279;29;18269;-75
2023/12/14 00:34:15;;;;;;;2.38;1.33;;;;;;;8.28;100.00;98462.50;332451;29;5498;-75
2023/12/14 00:34:27;;;;;;;2.53;1.50;;;;;;;8.31;100.00;98466.69;330963;29;19366;-75
2023/12/14 00:34:41;;;;;;;3.78;2.55;;;;;;;8.32;100.00;98466.63;334683;28;4616;-75
2023/12/14 00:34:53;;;;;;;3.90;3.13;;;;;;;8.35;100.00;98466.53;335219;28;5471;-75
2023/12/14 00:35:05;;;;;;;3.97;3.08;;;;;;;8.37;100.00;98464.72;332172;28;18413;-75
2023/12/14 00:35:17;;;;;;;3.38;2.10;;;;;;;8.39;100.00;98465.50;334069;29;5840;-75
2023/12/14 00:35:29;;;;;;;3.05;1.60;;;;;;;8.39;100.00;98465.50;330569;29;17849;-75
2023/12/14 00:35:41;;;;;;;2.15;1.38;;;;;;;8.40;100.00;98461.97;333757;28;4718;-75
2023/12/14 00:35:54;;;;;;;2.05;1.30;;;;;;;8.38;100.00;98468.97;331475;28;18294;-75
2023/12/14 00:36:06;;;;;;;2.38;1.40;;;;;;;8.37;100.00;98469.88;335359;28;5572;-75
2023/12/14 00:36:19;;;;;;;2.45;1.42;;;;;;;8.38;100.00;98468.97;328356;29;4694;-75
2023/12/14 00:36:31;;;;;;;1.75;1.40;;;;;;;8.40;100.00;98461.97;334365;29;4769;-75
2023/12/14 00:36:43;;;;;;;1.70;1.33;;;;;;;8.37;100.00;98467.31;334922;29;4607;-75
2023/12/14 00:36:55;;;;;;;1.77;1.50;;;;;;;8.39;100.00;98460.31;328953;29;18067;-75
2023/12/14 00:37:07;;;;;;;2.20;1.52;;;;;;;8.46;100.00;98466.09;336598;29;4737;-75
2023/12/14 00:37:19;;;;;;;2.17;1.60;;;;;;;8.49;100.00;98470.28;333221;28;19602;-75
2023/12/14 00:37:31;;;;;;;2.38;1.60;;;;;;;8.46;100.00;98465.25;337417;28;5141;-75
2023/12/14 00:37:43;;;;;;;2.78;1.67;;;;;;;8.49;100.00;98470.28;333442;29;5259;-75
2023/12/14 00:37:55;;;;;;;2.55;1.50;;;;;;;8.46;100.00;98466.09;333494;28;5492;-75
2023/12/14 00:38:07;;;;;;;2.08;1.45;;;;;;;8.49;100.00;98462.50;335376;28;5561;-74
2023/12/14 00:38:19;;;;;;;1.92;1.52;;;;;;;8.53;100.00;98462.34;332981;29;19359;-76
2023/12/14 00:38:31;;;;;;;2.30;1.60;;;;;;;8.56;100.00;98463.94;336400;29;6452;-75
2023/12/14 00:38:43;;;;;;;2.75;1.60;;;;;;;8.53;100.00;98472.69;331980;28;16605;-75
2023/12/14 00:38:56;;;;;;;3.08;1.52;;;;;;;8.49;100.00;98472.88;335045;29;4580;-75
2023/12/14 00:39:09;;;;;;;2.83;1.40;;;;;;;8.43;100.00;98465.38;335352;29;4700;-75
2023/12/14 00:39:21;;;;;;;1.92;1.30;;;;;;;8.39;100.00;98470.66;332968;29;17828;-75
2023/12/14 00:39:33;;;;;;;2.13;1.40;;;;;;;8.42;100.00;98468.88;336054;29;5502;-75
2023/12/14 00:39:45;;;;;;;3.28;1.67;;;;;;;8.44;100.00;98467.06;332260;28;4739;-75
2023/12/14 00:39:57;;;;;;;4.32;2.00;;;;;;;8.42;100.00;98468.88;335782;28;5375;-75
2023/12/14 00:40:09;;;;;;;4.50;2.00;;;;;;;8.44;100.00;98469.66;333593;28;5756;-75
2023/12/14 00:40:21;;;;;;;4.53;1.77;;;;;;;8.40;100.00;98461.97;336381;28;4499;-75
2023/12/14 00:40:33;;;;;;;4.10;1.52;;;;;;;8.44;100.00;98472.25;337068;28;4638;-75
2023/12/14 00:40:46;;;;;;;4.07;1.65;;;;;;;8.48;100.00;98476.38;333204;28;17797;-75
2023/12/14 00:40:58;;;;;;;4.13;1.75;;;;;;;8.46;100.00;98471.28;336818;28;4674;-75
2023/12/14 00:41:10;;;;;;;3.83;1.73;;;;;;;8.51;100.00;98471.06;333292;28;17460;-74
2023/12/14 00:41:22;;;;;;;2.20;1.40;;;;;;;8.40;100.00;98466.31;336436;28;5680;-75
2023/12/14 00:41:34;;;;;;;3.15;1.33;;;;;;;8.36;100.00;98467.34;335969;28;10740;-75
2023/12/14 00:41:46;;;;;;;2.92;1.23;;;;;;;8.37;100.00;98467.31;332229;29;17502;-75
2023/12/14 00:41:58;;;;;;;3.88;1.88;;;;;;;8.40;100.00;98472.34;336139;29;4625;-75
2023/12/14 00:42:10;;;;;;;3.40;2.42;;;;;;;8.36;100.00;98465.59;329430;29;4753;-75
2023/12/14 00:42:22;;;;;;;2.92;2.20;;;;;;;8.36;100.00;98473.38;334289;28;18234;-75
2023/12/14 00:42:34;;;;;;;2.65;1.88;;;;;;;8.35;100.00;98469.13;336495;29;5524;-75
2023/12/14 00:42:46;;;;;;;2.05;1.40;;;;;;;8.33;100.00;98465.75;332328;29;12278;-75
2023/12/14 00:42:58;;;;;;;2.47;1.70;;;;;;;8.37;100.00;98467.31;335750;29;4622;-75
2023/12/14 00:43:10;;;;;;;3.85;1.90;;;;;;;8.37;100.00;98477.66;332039;29;12452;-75
2023/12/14 00:43:22;;;;;;;3.78;2.00;;;;;;;8.41;100.00;98468.06;335082;29;5492;-75
2023/12/14 00:43:34;;;;;;;4.10;1.80;;;;;;;8.36;100.00;98470.78;331865;29;4723;-75
2023/12/14 00:43:46;;;;;;;2.88;1.52;;;;;;;8.39;100.00;98468.06;328427;28;18283;-75
2023/12/14 00:43:58;;;;;;;3.55;1.55;;;;;;;8.40;100.00;98471.50;336616;28;4633;-75
2023/12/14 00:44:11;;;;;;;3.38;1.50;;;;;;;8.40;100.00;98471.50;334038;28;18303;-75
2023/12/14 00:44:23;;;;;;;3.50;1.50;;;;;;;8.37;100.00;98472.47;337496;28;4911;-75
2023/12/14 00:44:35;;;;;;;2.33;1.40;;;;;;;8.38;100.00;98468.97;336576;28;13786;-75
2023/12/14 00:44:47;;;;;;;3.00;1.90;;;;;;;8.38;100.00;98468.97;333442;28;18239;-75
2023/12/14 00:44:59;;;;;;;3.22;2.10;;;;;;;8.39;100.00;98465.50;336704;28;5766;-75
2023/12/14 00:45:11;;;;;;;2.97;2.20;;;;;;;8.40;100.00;98474.91;329428;28;5547;-75
2023/12/14 00:45:23;;;;;;;3.05;1.90;;;;;;;8.40;100.00;98472.34;337324;28;4597;-75
2023/12/14 00:45:35;;;;;;;3.63;1.83;;;;;;;8.30;100.00;98471.03;337703;28;4579;-75
2023/12/14 00:45:47;;;;;;;2.88;1.60;;;;;;;8.36;100.00;98475.97;333853;28;18027;-75
2023/12/14 00:45:59;;;;;;;3.80;1.33;;;;;;;8.28;100.00;98472.84;333914;29;4885;-75
2023/12/14 00:46:11;;;;;;;4.25;1.35;;;;;;;8.26;100.00;98474.66;334109;28;5917;-75
2023/12/14 00:46:23;;;;;;;4.03;1.40;;;;;;;8.30;100.00;98476.22;330139;29;17751;-75
2023/12/14 00:46:35;;;;;;;2.45;1.60;;;;;;;8.32;100.00;98474.41;335808;29;4688;-75
2023/12/14 00:46:47;;;;;;;2.05;1.52;;;;;;;8.30;100.00;98473.63;327391;29;5328;-75
2023/12/14 00:47:00;;;;;;;2.80;1.70;;;;;;;8.30;100.00;98473.63;334156;29;5355;-75
2023/12/14 00:47:12;;;;;;;2.58;1.58;;;;;;;8.33;100.00;98472.66;331613;29;18338;-75
2023/12/14 00:47:24;;;;;;;2.83;1.83;;;;;;;8.35;100.00;98474.28;332919;29;5214;-74
2023/12/14 00:47:36;;;;;;;2.60;1.90;;;;;;;8.33;100.00;98470.94;330964;29;13476;-74
2023/12/14 00:47:48;;;;;;;3.45;1.88;;;;;;;8.32;100.00;98474.41;328163;29;4630;-75
2023/12/14 00:48:00;;;;;;;4.15;1.80;;;;;;;8.32;100.00;98469.22;332675;29;4782;-75
2023/12/14 00:48:12;;;;;;;3.60;1.58;;;;;;;8.37;100.00;98476.78;331933;29;17773;-75
2023/12/14 00:48:25;;;;;;;1.92;1.30;;;;;;;8.42;100.00;98476.66;334007;29;4746;-75
2023/12/14 00:48:37;;;;;;;2.20;1.38;;;;;;;8.47;100.00;98472.09;332363;29;17625;-75
2023/12/14 00:48:49;;;;;;;2.30;1.40;;;;;;;8.47;100.00;98477.28;333943;29;4666;-75
2023/12/14 00:49:02;;;;;;;3.10;1.58;;;;;;;8.52;100.00;98477.94;334537;28;5212;-75
2023/12/14 00:49:14;;;;;;;2.97;1.60;;;;;;;8.54;100.00;98478.72;332601;29;18213;-74
2023/12/14 00:49:28;;;;;;;2.65;1.63;;;;;;;8.54;100.00;98474.38;330191;29;9621;-75
2023/12/14 00:49:40;;;;;;;2.20;1.50;;;;;;;8.51;100.00;98471.06;331566;29;18194;-75
2023/12/14 00:49:52;;;;;;;2.08;1.50;;;;;;;8.50;100.00;98479.75;332490;29;5673;-75
2023/12/14 00:50:04;;;;;;;1.83;1.30;;;;;;;8.46;100.00;98480.78;334681;28;5506;-75
2023/12/14 00:50:16;;;;;;;1.98;1.30;;;;;;;8.43;100.00;98478.31;335732;28;5193;-75
2023/12/14 00:50:29;;;;;;;2.00;1.35;;;;;;;8.36;100.00;98472.53;333215;29;17520;-74
2023/12/14 00:50:41;;;;;;;2.05;1.35;;;;;;;8.34;100.00;98482.13;334892;29;4602;-75
2023/12/14 00:50:53;;;;;;;2.40;1.60;;;;;;;8.37;100.00;98481.97;332612;29;4769;-75
2023/12/14 00:51:05;;;;;;;2.38;1.50;;;;;;;8.36;100.00;98475.97;331705;29;17868;-75
2023/12/14 00:51:17;;;;;;;2.17;1.38;;;;;;;8.34;100.00;98482.13;333996;29;4541;-75
2023/12/14 00:51:29;;;;;;;4.10;1.30;;;;;;;8.29;100.00;98473.69;329934;29;18134;-75
2023/12/14 00:51:41;;;;;;;4.35;1.25;;;;;;;8.27;100.00;98488.44;335102;29;4755;-75
2023/12/14 00:51:53;;;;;;;4.95;1.40;;;;;;;8.24;100.00;98476.47;330541;29;16465;-75
2023/12/14 00:52:05;;;;;;;2.75;1.50;;;;;;;8.27;100.00;98484.13;333779;29;4741;-75
2023/12/14 00:52:17;;;;;;;2.20;1.45;;;;;;;8.30;100.00;98489.16;328585;29;5811;-75
2023/12/14 00:52:30;;;;;;;2.30;1.40;;;;;;;8.28;100.00;98482.38;331754;29;18895;-75
2023/12/14 00:52:42;;;;;;;1.88;1.30;;;;;;;8.32;100.00;98484.75;334983;29;4511;-75
2023/12/14 00:52:54;;;;;;;1.58;1.23;;;;;;;8.30;100.00;98486.56;331823;29;17019;-75
2023/12/14 00:53:06;;;;;;;1.65;1.15;;;;;;;8.31;100.00;98483.09;335983;28;4625;-75
2023/12/14 00:53:18;;;;;;;1.70;1.20;;;;;;;8.35;100.00;98483.78;335084;29;14196;-75
2023/12/14 00:53:30;;;;;;;1.88;1.45;;;;;;;8.37;100.00;98477.66;333274;28;18272;-75
2023/12/14 00:53:42;;;;;;;2.22;1.55;;;;;;;8.40;100.00;98477.50;334910;29;5425;-75
2023/12/14 00:53:54;;;;;;;3.00;1.70;;;;;;;8.43;100.00;98478.31;329629;28;5647;-75
2023/12/14 00:54:06;;;;;;;3.03;1.50;;;;;;;8.44;100.00;98480.84;335596;28;4894;-75
2023/12/14 00:54:18;;;;;;;2.60;1.55;;;;;;;8.43;100.00;98486.09;333433;28;5139;-75
2023/12/14 00:54:30;;;;;;;2.97;1.92;;;;;;;8.47;100.00;98482.47;332378;28;18276;-75
2023/12/14 00:54:42;;;;;;;2.92;2.10;;;;;;;8.51;100.00;98494.38;335834;28;5103;-75
2023/12/14 00:54:54;;;;;;;2.75;1.77;;;;;;;8.43;100.00;98474.00;333026;28;7490;-75
2023/12/14 00:55:06;;;;;;;2.33;1.40;;;;;;;8.43;100.00;98480.91;336191;28;4761;-75
2023/12/14 00:55:18;;;;;;;2.72;1.42;;;;;;;8.43;100.00;98480.91;330930;28;5249;-75
2023/12/14 00:55:30;;;;;;;2.28;1.40;;;;;;;8.43;100.00;98486.09;331872;29;18093;-75
2023/12/14 00:55:42;;;;;;;2.33;1.48;;;;;;;8.39;100.00;98486.19;335159;28;5191;-75
2023/12/14 00:55:54;;;;;;;2.42;1.50;;;;;;;8.40;100.00;98480.09;333346;28;11921;-75
2023/12/14 00:56:09;;;;;;;2.70;1.50;;;;;;;8.41;100.00;98488.75;336263;28;4845;-75
2023/12/14 00:56:22;;;;;;;3.60;1.60;;;;;;;8.39;100.00;98486.19;331165;28;18800;-75
2023/12/14 00:56:34;;;;;;;3.45;1.58;;;;;;;8.38;100.00;98484.50;335161;29;5229;-75
2023/12/14 00:56:46;;;;;;;2.97;1.45;;;;;;;8.38;100.00;98491.44;329402;29;4691;-75
2023/12/14 00:56:58;;;;;;;1.80;1.52;;;;;;;8.39;100.00;98491.38;333395;29;18165;-75
2023/12/14 00:57:10;;;;;;;2.08;1.52;;;;;;;8.48;100.00;98494.50;334359;28;4616;-75
2023/12/14 00:57:22;;;;;;;2.72;1.90;;;;;;;8.50;100.00;98490.13;332469;28;17108;-75
2023/12/14 00:57:34;;;;;;;2.97;1.95;;;;;;;8.51;100.00;98489.19;336365;28;5271;-75
2023/12/14 00:57:46;;;;;;;3.10;2.00;;;;;;;8.50;100.00;98495.28;332373;29;18957;-75
2023/12/14 00:57:58;;;;;;;2.95;1.80;;;;;;;8.51;100.00;98489.19;335808;29;5896;-75
2023/12/14 00:58:10;;;;;;;2.75;1.50;;;;;;;8.49;100.00;98494.47;329751;28;4567;-75
2023/12/14 00:58:22;;;;;;;3.00;1.48;;;;;;;8.51;100.00;98490.06;332983;28;18048;-75
2023/12/14 00:58:34;;;;;;;2.55;1.55;;;;;;;8.47;100.00;98485.06;336060;28;4694;-75